Flight Track Log - Related Links

Times and Time Zones

All times are in EDT time to prevent confusion due to time zone crossing. See the AWE1714 flight status page for this flight to view local times or setup timezone preferences in your user account.

Time Position Orientation Groundspeed Altitude Reporting Facility
EDT Latitude Longitude Course Direction KTS MPH feet Rate Location/Type
Sun 10:33:32 PM 39.8667 -75.2833 237° Southwest 164 189 1,100  Level Philadelphia TRACON
Sun 10:34:26 PM 39.8333 -75.3500 237° Southwest 213 245 2,200 1,667 Climbing Philadelphia TRACON
Sun 10:35:20 PM 39.8167 -75.4167 252° West 271 312 4,100 2,557 Climbing Philadelphia TRACON
Sun 10:36:21 PM 39.8833 -75.4500 339° North 262 302 7,100 2,857 Climbing Philadelphia TRACON
Sun 10:37:05 PM 39.9300 -75.4758 337° Northwest 270 311 9,100 2,208 Climbing New York Center
Sun 10:38:07 PM 40.0064 -75.4972 348° North 296 341 11,000 1,721 Climbing New York Center
Sun 10:39:07 PM 40.0886 -75.5217 347° North 314 361 12,600 1,916 Climbing New York Center
Sun 10:40:06 PM 40.1936 -75.5561 346° North 343 395 14,800 2,050 Climbing New York Center
Sun 10:41:07 PM 40.2697 -75.6347 322° Northwest 344 396 16,700 1,700 Climbing New York Center
Sun 10:42:06 PM 40.3364 -75.7347 311° West 350 403 18,200 1,400 Climbing New York Center
Sun 10:43:07 PM 40.4014 -75.8239 314° West 362 417 19,500 1,525 Climbing New York Center
Sun 10:44:08 PM 40.4517 -75.9614 296° West 373 429 21,300 1,678 Climbing New York Center
Sun 10:45:05 PM 40.4744 -76.1050 282° West 383 441 22,800 1,322 Climbing New York Center
Sun 10:46:06 PM 40.4947 -76.2511 280° West 396 456 23,900 1,171 Climbing New York Center
Sun 10:47:08 PM 40.5172 -76.3978 281° West 408 470 25,200 1,300 Climbing New York Center
Sun 10:48:06 PM 40.5433 -76.5472 283° West 413 475 26,500 1,231 Climbing New York Center
Sun 10:49:05 PM 40.5608 -76.6992 279° West 418 481 27,600 1,000 Climbing New York Center
Sun 10:50:06 PM 40.5756 -76.8561 277° West 424 488 28,500 950 Climbing New York Center
Sun 10:51:05 PM 40.5886 -77.0103 276° West 430 495 29,500 1,261 Climbing New York Center
Sun 10:52:05 PM 40.6008 -77.1700 276° West 430 495 31,000 1,190 Climbing New York Center
Sun 10:53:06 PM 40.6178 -77.3194 279° West 430 495 31,900 1,082 Climbing New York Center
Sun 10:54:07 PM 40.6303 -77.4778 276° West 429 494 33,200 1,033 Climbing Cleveland Center
Sun 10:55:08 PM 40.6417 -77.6306 276° West 427 491 34,000 390 Climbing Cleveland Center
Sun 10:56:10 PM 40.6550 -77.7808 277° West 420 483 34,000  Level Cleveland Center
Sun 10:57:11 PM 40.6742 -77.9311 280° West 420 483 34,000  Level Cleveland Center
Sun 10:58:12 PM 40.6953 -78.0808 281° West 419 482 34,000  Level Cleveland Center
Sun 10:59:13 PM 40.7164 -78.2317 281° West 419 482 34,000  Level Cleveland Center
Sun 11:00:14 PM 40.7372 -78.3836 280° West 420 483 34,000  Level Cleveland Center
Sun 11:01:15 PM 40.7572 -78.5367 280° West 421 484 34,000  Level Cleveland Center
Sun 11:02:16 PM 40.7786 -78.6922 280° West 426 490 34,000  Level Cleveland Center
Sun 11:03:17 PM 40.8033 -78.8789 280° West 427 491 34,000  Level Cleveland Center
Sun 11:04:18 PM 40.8214 -79.0128 280° West 429 494 34,000  Level Cleveland Center
Sun 11:05:19 PM 40.8417 -79.1703 280° West 433 498 34,000  Level Cleveland Center
Sun 11:06:20 PM 40.8619 -79.3281 280° West 435 501 34,000  Level Cleveland Center
Sun 11:07:21 PM 40.8850 -79.5164 279° West 435 501 34,000  Level Cleveland Center
Sun 11:08:22 PM 40.9053 -79.6725 280° West 435 501 34,000  Level Cleveland Center
Sun 11:09:23 PM 40.9239 -79.8289 279° West 435 501 34,000  Level Cleveland Center
Sun 11:10:24 PM 40.9436 -79.9872 279° West 437 503 34,000  Level Cleveland Center
Sun 11:11:25 PM 40.9631 -80.1444 279° West 437 503 34,000  Level Cleveland Center
Sun 11:12:26 PM 40.9822 -80.3025 279° West 437 503 34,000  Level Cleveland Center
Sun 11:13:27 PM 41.0011 -80.4603 279° West 437 503 34,000  Level Cleveland Center
Sun 11:14:28 PM 41.0186 -80.6186 278° West 437 503 34,000  Level Cleveland Center
Sun 11:15:29 PM 41.0375 -80.7772 279° West 437 503 34,000  Level Cleveland Center
Sun 11:16:30 PM 41.0525 -80.9367 277° West 437 503 34,000  Level Cleveland Center
Sun 11:17:30 PM 41.0653 -81.1308 275° West 440 506 34,000  Level Cleveland Center
Sun 11:18:31 PM 41.0750 -81.2925 275° West 442 509 34,000  Level Cleveland Center
Sun 11:19:32 PM 41.0850 -81.4553 275° West 443 510 34,000  Level Cleveland Center
Sun 11:20:33 PM 41.0942 -81.6178 274° West 443 510 34,000  Level Cleveland Center
Sun 11:21:34 PM 41.1031 -81.7803 274° West 443 510 34,000  Level Cleveland Center
Sun 11:22:34 PM 41.1128 -81.9428 275° West 443 510 34,000  Level Cleveland Center
Sun 11:23:35 PM 41.1228 -82.1153 274° West 444 511 34,000  Level Cleveland Center
Sun 11:24:36 PM 41.1317 -82.2708 274° West 444 511 34,000  Level Cleveland Center
Sun 11:25:37 PM 41.1394 -82.4353 274° West 445 512 34,000  Level Cleveland Center
Sun 11:26:37 PM 41.1489 -82.5994 274° West 445 512 34,000  Level Cleveland Center
Sun 11:27:38 PM 41.1564 -82.7647 274° West 446 513 34,000  Level Cleveland Center
Sun 11:28:39 PM 41.1658 -82.9289 274° West 446 513 34,000  Level Cleveland Center
Sun 11:29:40 PM 41.1736 -83.0942 274° West 447 514 34,000  Level Cleveland Center
Sun 11:30:40 PM 41.1814 -83.2597 274° West 447 514 34,000  Level Cleveland Center
Sun 11:31:41 PM 41.1889 -83.4256 273° West 448 516 34,000  Level Cleveland Center
Sun 11:32:42 PM 41.1969 -83.5933 274° West 450 518 34,000  Level Cleveland Center
Sun 11:33:42 PM 41.2044 -83.7597 273° West 450 518 34,000  Level Cleveland Center
Sun 11:34:43 PM 41.2119 -83.9331 273° West 450 518 34,000  Level Cleveland Center
Sun 11:35:44 PM 41.2181 -84.0969 273° West 448 516 34,000  Level Cleveland Center
Sun 11:36:44 PM 41.2239 -84.2608 273° West 447 514 34,000  Level Cleveland Center
Sun 11:37:45 PM 41.2289 -84.4250 272° West 446 513 34,000  Level Cleveland Center
Sun 11:38:46 PM 41.2328 -84.5886 272° West 446 513 34,000  Level Cleveland Center
Sun 11:39:34 PM 41.2375 -84.7164 273° West 444 511 34,000  Level Chicago Center
Sun 11:40:34 PM 41.2419 -84.8814 272° West 444 511 34,000 -198 Level Chicago Center
Sun 11:41:35 PM 41.2475 -85.0464 273° West 444 511 33,600 -639 Descending Chicago Center
Sun 11:42:36 PM 41.2681 -85.2089 280° West 445 512 32,700 -942 Descending Chicago Center
Sun 11:43:36 PM 41.2911 -85.3767 280° West 451 519 31,700 -992 Descending Chicago Center
Sun 11:44:37 PM 41.3128 -85.5447 280° West 454 522 30,700 -984 Descending Chicago Center
Sun 11:45:38 PM 41.3347 -85.7108 280° West 455 524 29,700 -984 Descending Chicago Center
Sun 11:46:39 PM 41.3558 -85.8747 280° West 446 513 28,700 -1,785 Descending Chicago Center
Sun 11:47:39 PM 41.3811 -86.0667 280° West 436 502 26,100 -2,430 Descending Chicago Center
Sun 11:48:40 PM 41.4000 -86.2197 279° West 418 481 23,800 -2,164 Descending Chicago Center
Sun 11:49:41 PM 41.4186 -86.3706 279° West 415 478 21,700 -2,083 Descending Chicago Center
Sun 11:50:41 PM 41.4383 -86.5164 280° West 405 466 19,600 -2,033 Descending Chicago Center
Sun 11:51:42 PM 41.4547 -86.6583 279° West 393 452 17,600 -1,918 Descending Chicago Center
Sun 11:52:43 PM 41.4736 -86.8069 280° West 391 450 15,700 -1,884 Descending Chicago Center
Sun 11:53:43 PM 41.4911 -86.9436 280° West 378 435 13,800 -1,785 Descending Chicago Center
Sun 11:54:44 PM 41.5067 -87.0792 279° West 373 429 12,100 -1,328 Descending Chicago Center
Sun 11:55:45 PM 41.5408 -87.1978 291° West 347 399 11,100 -496 Descending Chicago Center
Sun 11:56:45 PM 41.6019 -87.2942 310° West 342 394 11,100 -446 Level Chicago Center
Sun 11:57:46 PM 41.6658 -87.3931 311° West 326 375 10,200 -488 Descending Chicago Center
Sun 11:58:48 PM 41.7233 -87.4847 310° West 322 371 10,100 -49 Descending Chicago Center
Sun 11:59:48 PM 41.7811 -87.5761 310° West 324 373 10,100 -645 Level Chicago Center
Mon 12:00:49 AM 41.8328 -87.6583 310° West 294 338 8,800 -1,426 Descending Chicago Center
Mon 12:01:50 AM 41.8683 -87.7572 296° West 287 330 7,200 -843 Descending Chicago Center
Mon 12:02:50 AM 41.8764 -87.8508 277° West 252 290 7,100 -50 Descending Chicago Center
Mon 12:03:51 AM 41.8808 -87.9369 274° West 236 272 7,100 -446 Level Chicago Center
Mon 12:04:51 AM 41.8761 -88.0117 265° West 203 234 6,200 -992 Descending Chicago Center
Mon 12:05:52 AM 41.8747 -88.0858 269° West 203 234 5,100 -984 Descending Chicago Center
Mon 12:06:53 AM 41.8728 -88.1597 268° West 200 230 4,200 -496 Descending Chicago Center
Mon 12:07:53 AM 41.9197 -88.1889 335° Northwest 202 232 4,100 -99 Descending Chicago Center
Mon 12:08:54 AM 41.9594 -88.1550 32° Northeast 197 227 4,000 -595 Descending Chicago Center
Mon 12:09:54 AM 41.9650 -88.0836 84° East 194 223 2,900 -992 Descending Chicago Center
Mon 12:10:55 AM 41.9650 -88.0192 90° East 173 199 2,000 -793 Descending Chicago Center
Mon 12:11:55 AM 41.9647 -87.9692 90° East 136 157 1,300 -550 Descending Chicago Center
Mon 12:12:55 AM 41.9647 -87.9236 90° East 137 158 900 -400 Descending Chicago Center
Mon 12:14:00 AM 41.9667 -87.9000 59° Northeast  Level FlightAware Approximate

Login

Don't have an account? Register now (free) for customized features, flight alerts, and more!